Time;durP1;ratioP1;P1;durP2;ratioP2;P2;SDS_P1;SDS_P2;PMS_P1;PMS_P2;Temp;Humidity;BMP_temperature;BMP_pressure;BME280_temperature;BME280_humidity;BME280_pressure;Samples;Min_cycle;Max_cycle;Signal;HPM_P1;HPM_P2
2023/04/13 00:01:44;;;;;;;;;;;;;;;;;;6157986;23;19928;-86
2023/04/13 00:04:12;;;;;;;;;;;;;;;;;;6158983;23;20356;-86
2023/04/13 00:06:41;;;;;;;;;;;;;;;;;;6158651;23;19920;-86
2023/04/13 00:09:08;;;;;;;;;;;;;;;;;;6185093;23;19928;-86
2023/04/13 00:11:37;;;;;;;;;;;;;;;;;;6158130;23;19920;-86
2023/04/13 00:14:06;;;;;;;;;;;;;;;;;;6194608;23;19943;-87
2023/04/13 00:16:35;;;;;;;;;;;;;;;;;;6164316;23;19920;-87
2023/04/13 00:19:02;;;;;;;;;;;;;;;;;;6185034;23;19927;-86
2023/04/13 00:21:32;;;;;;;;;;;;;;;;;;6158266;23;19939;-86
2023/04/13 00:24:01;;;;;;;;;;;;;;;;;;6133890;23;19928;-86
2023/04/13 00:26:30;;;;;;;;;;;;;;;;;;6183572;23;19927;-86
2023/04/13 00:28:57;;;;;;;;;;;;;;;;;;6168466;23;20359;-86
2023/04/13 00:31:28;;;;;;;;;;;;;;;;;;6167533;23;19928;-86
2023/04/13 00:33:55;;;;;;;;;;;;;;;;;;6158066;23;19927;-86
2023/04/13 00:36:26;;;;;;;;;;;;;;;;;;6157832;23;19927;-86
2023/04/13 00:38:57;;;;;;;;;;;;;;;;;;6158966;23;19943;-86
2023/04/13 00:41:25;;;;;;;;;;;;;;;;;;6134576;23;20124;-86
2023/04/13 00:43:52;;;;;;;;;;;;;;;;;;6158806;23;19920;-87
2023/04/13 00:46:19;;;;;;;;;;;;;;;;;;6158176;23;20230;-86
2023/04/13 00:48:51;;;;;;;;;;;;;;;;;;6168405;23;19927;-86
2023/04/13 00:51:18;;;;;;;;;;;;;;;;;;6158075;23;19927;-86
2023/04/13 00:53:45;;;;;;;;;;;;;;;;;;6133403;23;19920;-86
2023/04/13 00:56:12;;;;;;;;;;;;;;;;;;6159257;23;19921;-86
2023/04/13 00:58:42;;;;;;;;;;;;;;;;;;6158482;23;19921;-86
2023/04/13 01:01:11;;;;;;;;;;;;;;;;;;6158243;23;19943;-86
2023/04/13 01:03:41;;;;;;;;;;;;;;;;;;6133114;23;19927;-86
2023/04/13 01:06:16;;;;;;;;;;;;;;;;;;6157596;23;20254;-86
2023/04/13 01:08:45;;;;;;;;;;;;;;;;;;6133838;23;19920;-86
2023/04/13 01:11:18;;;;;;;;;;;;;;;;;;6133517;23;19967;-86
2023/04/13 01:13:50;;;;;;;;;;;;;;;;;;6168967;23;19924;-86
2023/04/13 01:16:21;;;;;;;;;;;;;;;;;;6162045;23;20358;-86
2023/04/13 01:18:52;;;;;;;;;;;;;;;;;;6164089;23;19946;-86
2023/04/13 01:21:24;;;;;;;;;;;;;;;;;;6138890;23;19924;-87
2023/04/13 01:23:54;;;;;;;;;;;;;;;;;;6163037;23;19927;-86
2023/04/13 01:26:26;;;;;;;;;;;;;;;;;;6138023;23;19925;-86
2023/04/13 01:28:55;;;;;;;;;;;;;;;;;;6198700;23;19927;-87
2023/04/13 01:31:23;;;;;;;;;;;;;;;;;;6183860;23;20256;-86
2023/04/13 01:33:50;;;;;;;;;;;;;;;;;;6157619;23;19927;-86
2023/04/13 01:36:17;;;;;;;;;;;;;;;;;;6165590;23;19924;-86
2023/04/13 01:38:45;;;;;;;;;;;;;;;;;;6132798;23;19927;-86
2023/04/13 01:41:17;;;;;;;;;;;;;;;;;;6132895;23;19920;-86
2023/04/13 01:43:48;;;;;;;;;;;;;;;;;;6183834;23;19920;-87
2023/04/13 01:46:22;;;;;;;;;;;;;;;;;;6133406;23;19920;-86
2023/04/13 01:48:56;;;;;;;;;;;;;;;;;;6169087;23;19920;-86
2023/04/13 01:51:44;;;;;;;;;;;;;;;;;;6195139;23;19921;-86
2023/04/13 01:54:13;;;;;;;;;;;;;;;;;;6170092;23;19943;-86
2023/04/13 01:56:43;;;;;;;;;;;;;;;;;;6134957;23;19920;-86
2023/04/13 01:59:11;;;;;;;;;;;;;;;;;;6158754;23;19924;-86
2023/04/13 02:01:40;;;;;;;;;;;;;;;;;;6185677;23;19920;-86
2023/04/13 02:04:09;;;;;;;;;;;;;;;;;;6135412;23;19932;-86
2023/04/13 02:06:39;;;;;;;;;;;;;;;;;;6135342;23;20233;-86
2023/04/13 02:09:09;;;;;;;;;;;;;;;;;;6169205;23;19925;-86
2023/04/13 02:11:39;;;;;;;;;;;;;;;;;;6159217;23;19928;-86
2023/04/13 02:14:08;;;;;;;;;;;;;;;;;;6159232;23;19928;-86
2023/04/13 02:16:35;;;;;;;;;;;;;;;;;;6166255;23;19920;-86
2023/04/13 02:19:04;;;;;;;;;;;;;;;;;;6169382;23;20256;-86
2023/04/13 02:21:33;;;;;;;;;;;;;;;;;;6159206;23;20264;-86
2023/04/13 02:24:01;;;;;;;;;;;;;;;;;;6159632;23;20348;-86
2023/04/13 02:26:28;;;;;;;;;;;;;;;;;;6159776;23;19920;-86
2023/04/13 02:28:57;;;;;;;;;;;;;;;;;;6184725;23;21435;-86
2023/04/13 02:31:24;;;;;;;;;;;;;;;;;;6158335;23;19920;-85
2023/04/13 02:33:51;;;;;;;;;;;;;;;;;;6159502;23;19924;-86
2023/04/13 02:36:23;;;;;;;;;;;;;;;;;;6193122;23;20256;-86
2023/04/13 02:38:57;;;;;;;;;;;;;;;;;;6135071;23;20353;-86
2023/04/13 02:41:33;;;;;;;;;;;;;;;;;;6133672;23;19940;-86
2023/04/13 02:44:00;;;;;;;;;;;;;;;;;;6134948;23;19928;-86
2023/04/13 02:46:33;;;;;;;;;;;;;;;;;;6192254;23;19927;-86
2023/04/13 02:49:08;;;;;;;;;;;;;;;;;;6135375;23;19972;-86
2023/04/13 02:51:42;;;;;;;;;;;;;;;;;;6133585;23;19924;-86
2023/04/13 02:54:12;;;;;;;;;;;;;;;;;;6169028;23;19920;-86
2023/04/13 02:56:46;;;;;;;;;;;;;;;;;;6165743;23;19943;-86
2023/04/13 02:59:13;;;;;;;;;;;;;;;;;;6134191;23;19920;-86
2023/04/13 03:01:44;;;;;;;;;;;;;;;;;;6168737;23;19943;-86
2023/04/13 03:04:14;;;;;;;;;;;;;;;;;;6158626;23;19943;-86
2023/04/13 03:06:44;;;;;;;;;;;;;;;;;;6134567;23;19920;-87
2023/04/13 03:09:15;;;;;;;;;;;;;;;;;;6134998;23;19920;-86
2023/04/13 03:11:47;;;;;;;;;;;;;;;;;;6159189;23;19920;-86
2023/04/13 03:14:21;;;;;;;;;;;;;;;;;;6167553;23;19936;-86
2023/04/13 03:16:54;;;;;;;;;;;;;;;;;;6134408;23;19927;-86
2023/04/13 03:19:25;;;;;;;;;;;;;;;;;;6134352;23;19921;-86
2023/04/13 03:21:56;;;;;;;;;;;;;;;;;;6159191;23;19928;-86
2023/04/13 03:24:27;;;;;;;;;;;;;;;;;;6133060;23;19928;-86
2023/04/13 03:26:57;;;;;;;;;;;;;;;;;;6158511;23;19920;-86
2023/04/13 03:29:32;;;;;;;;;;;;;;;;;;6169209;23;19921;-86
2023/04/13 03:32:02;;;;;;;;;;;;;;;;;;6133837;23;19947;-86
2023/04/13 03:34:32;;;;;;;;;;;;;;;;;;6158820;23;19921;-86
2023/04/13 03:37:09;;;;;;;;;;;;;;;;;;6133876;23;19924;-86
2023/04/13 03:39:39;;;;;;;;;;;;;;;;;;6134836;23;19924;-87
2023/04/13 03:42:10;;;;;;;;;;;;;;;;;;6132392;23;19920;-85
2023/04/13 03:44:42;;;;;;;;;;;;;;;;;;6167301;23;19924;-86
2023/04/13 03:47:10;;;;;;;;;;;;;;;;;;6133679;23;19927;-85
2023/04/13 03:49:40;;;;;;;;;;;;;;;;;;6133128;23;19927;-86
2023/04/13 03:52:11;;;;;;;;;;;;;;;;;;6158099;23;19946;-86
2023/04/13 03:54:42;;;;;;;;;;;;;;;;;;6168942;23;19920;-85
2023/04/13 03:57:09;;;;;;;;;;;;;;;;;;6132783;23;19920;-85
2023/04/13 03:59:36;;;;;;;;;;;;;;;;;;6131948;23;19927;-85
2023/04/13 04:02:05;;;;;;;;;;;;;;;;;;6132507;23;19924;-86
2023/04/13 04:04:35;;;;;;;;;;;;;;;;;;6133343;23;20345;-85
2023/04/13 04:07:02;;;;;;;;;;;;;;;;;;6183748;23;19931;-85
2023/04/13 04:09:31;;;;;;;;;;;;;;;;;;6158231;23;19921;-86
2023/04/13 04:11:59;;;;;;;;;;;;;;;;;;6157978;23;19924;-86
2023/04/13 04:14:37;;;;;;;;;;;;;;;;;;6157190;23;19924;-86
2023/04/13 04:17:13;;;;;;;;;;;;;;;;;;6132802;23;19920;-85
2023/04/13 04:19:40;;;;;;;;;;;;;;;;;;6158730;23;19927;-85
2023/04/13 04:22:07;;;;;;;;;;;;;;;;;;6158921;23;19921;-86
2023/04/13 04:24:41;;;;;;;;;;;;;;;;;;6168335;23;19924;-86
2023/04/13 04:27:13;;;;;;;;;;;;;;;;;;6161306;23;20374;-88
2023/04/13 04:29:48;;;;;;;;;;;;;;;;;;6156957;23;19927;-85
2023/04/13 04:32:24;;;;;;;;;;;;;;;;;;6133874;23;19921;-85
2023/04/13 04:34:52;;;;;;;;;;;;;;;;;;6134023;23;20355;-85
2023/04/13 04:37:24;;;;;;;;;;;;;;;;;;6161948;23;19931;-86
2023/04/13 04:40:09;;;;;;;;;;;;;;;;;;6158498;23;19943;-85
2023/04/13 04:42:37;;;;;;;;;;;;;;;;;;6158003;23;19920;-86
2023/04/13 04:45:07;;;;;;;;;;;;;;;;;;6158949;23;19920;-86
2023/04/13 04:47:42;;;;;;;;;;;;;;;;;;6160767;23;19921;-86
2023/04/13 04:50:21;;;;;;;;;;;;;;;;;;6168594;23;19920;-84
2023/04/13 04:52:55;;;;;;;;;;;;;;;;;;6133591;23;19936;-84
2023/04/13 04:55:26;;;;;;;;;;;;;;;;;;6175244;23;19930;-85
2023/04/13 04:57:53;;;;;;;;;;;;;;;;;;6139846;23;19920;-85
2023/04/13 05:00:25;;;;;;;;;;;;;;;;;;6158479;23;20237;-85
2023/04/13 05:03:06;;;;;;;;;;;;;;;;;;6168598;23;19928;-85
2023/04/13 05:05:34;;;;;;;;;;;;;;;;;;6158694;23;19920;-85
2023/04/13 05:08:06;;;;;;;;;;;;;;;;;;6159121;23;19927;-85
2023/04/13 05:10:44;;;;;;;;;;;;;;;;;;6133860;23;20255;-85
2023/04/13 05:13:12;;;;;;;;;;;;;;;;;;6133607;23;19927;-85
2023/04/13 05:15:41;;;;;;;;;;;;;;;;;;6158226;23;19920;-85
2023/04/13 05:18:11;;;;;;;;;;;;;;;;;;6133697;23;19920;-85
2023/04/13 05:20:39;;;;;;;;;;;;;;;;;;6133953;23;19928;-85
2023/04/13 05:23:08;;;;;;;;;;;;;;;;;;6133125;23;20252;-85
2023/04/13 05:25:40;;;;;;;;;;;;;;;;;;6133716;23;19967;-85
2023/04/13 05:28:20;;;;;;;;;;;;;;;;;;6158834;23;19920;-85
2023/04/13 05:30:47;;;;;;;;;;;;;;;;;;6158517;23;20341;-85
2023/04/13 05:33:15;;;;;;;;;;;;;;;;;;6158365;23;19920;-85
2023/04/13 05:35:43;;;;;;;;;;;;;;;;;;6133656;23;19920;-85
2023/04/13 05:38:12;;;;;;;;;;;;;;;;;;6158478;23;20237;-86
2023/04/13 05:40:40;;;;;;;;;;;;;;;;;;6133375;23;19924;-85
2023/04/13 05:43:07;;;;;;;;;;;;;;;;;;6133454;23;19920;-85
2023/04/13 05:45:42;;;;;;;;;;;;;;;;;;6133440;23;20333;-85
2023/04/13 07:04:39;;;;;;;;;;;;;;;;;;;;;
2023/04/13 07:25:34;;;;;;;;;;;;;;;;;;5973431;23;19922;-87
2023/04/13 07:28:29;;;;;;;;;;;;;;;;;;;;;
2023/04/13 07:38:50;;;;;;;;;;;;;;;;;;6102435;23;19931;-88
2023/04/13 07:41:21;;;;;;;;;;;;;;;;;;6193264;23;19919;-88
2023/04/13 07:43:51;;;;;;;;;;;;;;;;;;6190595;23;19919;-88
2023/04/13 07:46:19;;;;;;;;;;;;;;;;;;6218419;23;19942;-89
2023/04/13 07:48:46;;;;;;;;;;;;;;;;;;6218599;23;20438;-87
2023/04/13 07:51:25;;;;;;;;;;;;;;;;;;6193585;23;19920;-88
2023/04/13 07:53:53;;;;;;;;;;;;;;;;;;6227785;23;19924;-89
2023/04/13 07:56:27;;;;;;;;;;;;;;;;;;6228974;23;20277;-89
2023/04/13 07:58:54;;;;;;;;;;;;;;;;;;6218408;23;19927;-89
2023/04/13 08:01:21;;;;;;;;;;;;;;;;;;6217948;23;19927;-88
2023/04/13 08:03:51;;;;;;;;;;;;;;;;;;6228444;23;19920;-90
2023/04/13 08:06:22;;;;;;;;;;;;;;;;;;6228467;23;20273;-87
2023/04/13 08:08:53;;;;;;;;;;;;;;;;;;6228815;23;19919;-89
2023/04/13 08:11:20;;;;;;;;;;;;;;;;;;6192683;23;19928;-89
2023/04/13 08:13:55;;;;;;;;;;;;;;;;;;6228721;23;19919;-89
2023/04/13 08:16:22;;;;;;;;;;;;;;;;;;6193109;23;19962;-88
2023/04/13 08:18:50;;;;;;;;;;;;;;;;;;6192651;23;19931;-89
2023/04/13 08:21:20;;;;;;;;;;;;;;;;;;6217903;23;20347;-88
2023/04/13 08:23:48;;;;;;;;;;;;;;;;;;6192991;23;19946;-88
2023/04/13 08:26:16;;;;;;;;;;;;;;;;;;6193641;23;19919;-89
2023/04/13 11:25:51;;;;;;;;;;;;;;;;;;6131291;23;19924;-89
2023/04/13 14:59:40;;;;;;;;;;;;;;;;;;6179248;23;19920;-88
2023/04/13 15:24:02;;;;;;;;;;;;;;;;;;5885526;23;19930;-88
2023/04/13 15:30:29;;;;;;;;;;;;;;;;;;6013123;23;20370;-88
2023/04/13 15:33:36;;;;;;;;;;;;;;;;;;;;;
2023/04/13 15:36:48;;;;;;;;;;;;;;;;;;6080139;23;19944;-88
2023/04/13 15:39:45;;;;;;;;;;;;;;;;;;;;;
2023/04/13 15:42:37;;;;;;;;;;;;;;;;;;;;;
2023/04/13 15:48:26;;;;;;;;;;;;;;;;;;6157826;23;19979;-88
2023/04/13 15:51:38;;;;;;;;;;;;;;;;;;6127921;23;19928;-87
2023/04/13 15:54:32;;;;;;;;;;;;;;;;;;5979401;24;20398;-88
2023/04/13 15:57:12;;;;;;;;;;;;;;;;;;6154817;23;19927;-88
2023/04/13 16:00:06;;;;;;;;;;;;;;;;;;6134743;23;20352;-88
2023/04/13 16:02:51;;;;;;;;;;;;;;;;;;6164806;23;19921;-88
2023/04/13 16:06:24;;;;;;;;;;;;;;;;;;6132540;23;19920;-88
2023/04/13 16:09:31;;;;;;;;;;;;;;;;;;;;;
2023/04/13 16:12:20;;;;;;;;;;;;;;;;;;;;;
2023/04/13 16:15:21;;;;;;;;;;;;;;;;;;;;;
2023/04/13 16:18:27;;;;;;;;;;;;;;;;;;;;;
2023/04/13 16:21:23;;;;;;;;;;;;;;;;;;6128059;23;19921;-88
2023/04/13 16:31:47;;;;;;;;;;;;;;;;;;5999973;23;19927;-88
2023/04/13 16:34:14;;;;;;;;;;;;;;;;;;6155153;23;19928;-88
2023/04/13 16:36:44;;;;;;;;;;;;;;;;;;6155489;23;19932;-91
2023/04/13 16:39:11;;;;;;;;;;;;;;;;;;6157633;23;20252;-87
2023/04/13 16:41:42;;;;;;;;;;;;;;;;;;6153514;23;19925;-87
2023/04/13 16:44:12;;;;;;;;;;;;;;;;;;6155290;23;20257;-87
2023/04/13 16:46:41;;;;;;;;;;;;;;;;;;6127686;23;19920;-87
2023/04/13 16:49:09;;;;;;;;;;;;;;;;;;6154639;23;19921;-88
2023/04/13 16:51:39;;;;;;;;;;;;;;;;;;6154622;23;19920;-88
2023/04/13 16:54:06;;;;;;;;;;;;;;;;;;6128209;23;19931;-88
2023/04/13 16:56:35;;;;;;;;;;;;;;;;;;6128872;23;19928;-88
2023/04/13 16:59:02;;;;;;;;;;;;;;;;;;6155490;23;19936;-87
2023/04/13 17:01:29;;;;;;;;;;;;;;;;;;6104241;23;19935;-86
2023/04/13 17:03:56;;;;;;;;;;;;;;;;;;6104628;23;19925;-87
2023/04/13 17:06:25;;;;;;;;;;;;;;;;;;6130967;23;20333;-86
2023/04/13 17:08:52;;;;;;;;;;;;;;;;;;6162104;23;19912;-87
2023/04/13 17:11:22;;;;;;;;;;;;;;;;;;6181796;23;19960;-86
2023/04/13 17:13:50;;;;;;;;;;;;;;;;;;6157024;23;19992;-88
2023/04/13 17:16:17;;;;;;;;;;;;;;;;;;6157251;23;19927;-86
2023/04/13 17:18:44;;;;;;;;;;;;;;;;;;6169755;23;19931;-87
2023/04/13 17:21:11;;;;;;;;;;;;;;;;;;6114042;23;19920;-87
2023/04/13 17:23:40;;;;;;;;;;;;;;;;;;6165131;23;19920;-87
2023/04/13 17:26:07;;;;;;;;;;;;;;;;;;6164389;23;19921;-88
2023/04/13 17:28:36;;;;;;;;;;;;;;;;;;6141101;23;19921;-88
2023/04/13 17:31:03;;;;;;;;;;;;;;;;;;6133590;23;19931;-87
2023/04/13 17:33:32;;;;;;;;;;;;;;;;;;6128010;23;19920;-88
2023/04/13 17:36:02;;;;;;;;;;;;;;;;;;6128342;23;19928;-87
2023/04/13 17:38:31;;;;;;;;;;;;;;;;;;6154862;23;19928;-87
2023/04/13 17:40:59;;;;;;;;;;;;;;;;;;6128160;23;19920;-87
2023/04/13 17:43:26;;;;;;;;;;;;;;;;;;6153164;23;19921;-88
2023/04/13 17:45:53;;;;;;;;;;;;;;;;;;6154054;23;19921;-87
2023/04/13 17:48:20;;;;;;;;;;;;;;;;;;6166091;23;20084;-86
2023/04/13 17:50:52;;;;;;;;;;;;;;;;;;6193908;23;20345;-86
2023/04/13 17:53:19;;;;;;;;;;;;;;;;;;6156422;23;20208;-86
2023/04/13 17:55:46;;;;;;;;;;;;;;;;;;6182946;23;19920;-86
2023/04/13 17:58:15;;;;;;;;;;;;;;;;;;6189334;23;20237;-86
2023/04/13 18:00:42;;;;;;;;;;;;;;;;;;6194029;23;19951;-86
2023/04/13 18:03:10;;;;;;;;;;;;;;;;;;6183456;23;19927;-87
2023/04/13 18:05:40;;;;;;;;;;;;;;;;;;6157174;23;19935;-86
2023/04/13 18:08:07;;;;;;;;;;;;;;;;;;6183518;23;19920;-87
2023/04/13 18:10:34;;;;;;;;;;;;;;;;;;6158665;23;19920;-87
2023/04/13 18:13:01;;;;;;;;;;;;;;;;;;6157481;23;19947;-88
2023/04/13 18:15:30;;;;;;;;;;;;;;;;;;6157659;23;19927;-87
2023/04/13 18:17:59;;;;;;;;;;;;;;;;;;6182808;23;19928;-87
2023/04/13 18:20:26;;;;;;;;;;;;;;;;;;6134160;23;19924;-87
2023/04/13 18:22:53;;;;;;;;;;;;;;;;;;6183822;23;19920;-87
2023/04/13 18:25:23;;;;;;;;;;;;;;;;;;6132382;23;20256;-87
2023/04/13 18:27:50;;;;;;;;;;;;;;;;;;6184020;23;19920;-87
2023/04/13 18:30:17;;;;;;;;;;;;;;;;;;6133516;23;19921;-87
2023/04/13 18:32:50;;;;;;;;;;;;;;;;;;6186256;23;19920;-86
2023/04/13 18:35:17;;;;;;;;;;;;;;;;;;6193724;23;19927;-87
2023/04/13 18:37:46;;;;;;;;;;;;;;;;;;6185602;23;19920;-87
2023/04/13 18:40:15;;;;;;;;;;;;;;;;;;6185561;23;19921;-87
2023/04/13 18:42:43;;;;;;;;;;;;;;;;;;6160512;23;20348;-87
2023/04/13 18:45:10;;;;;;;;;;;;;;;;;;6187488;23;20233;-89
2023/04/13 18:47:37;;;;;;;;;;;;;;;;;;6194838;23;19920;-89
2023/04/13 18:50:06;;;;;;;;;;;;;;;;;;6195794;23;19924;-87
2023/04/13 18:52:33;;;;;;;;;;;;;;;;;;6185473;23;20233;-87
2023/04/13 18:55:00;;;;;;;;;;;;;;;;;;6185806;23;19920;-87
2023/04/13 18:57:30;;;;;;;;;;;;;;;;;;6185070;23;19920;-87
2023/04/13 18:59:57;;;;;;;;;;;;;;;;;;6184734;23;19920;-87
2023/04/13 19:02:24;;;;;;;;;;;;;;;;;;6193512;23;19921;-86
2023/04/13 19:04:51;;;;;;;;;;;;;;;;;;6185730;23;19921;-86
2023/04/13 19:07:21;;;;;;;;;;;;;;;;;;6133799;23;19920;-87
2023/04/13 19:09:50;;;;;;;;;;;;;;;;;;6168756;23;19920;-86
2023/04/13 19:12:21;;;;;;;;;;;;;;;;;;6184525;23;19940;-86
2023/04/13 19:14:50;;;;;;;;;;;;;;;;;;6184449;23;19921;-86
2023/04/13 19:17:25;;;;;;;;;;;;;;;;;;6184276;23;19924;-86
2023/04/13 19:19:52;;;;;;;;;;;;;;;;;;6134440;23;20379;-87
2023/04/13 19:22:19;;;;;;;;;;;;;;;;;;6185393;23;19920;-86
2023/04/13 19:24:50;;;;;;;;;;;;;;;;;;6158430;23;19920;-87
2023/04/13 19:27:21;;;;;;;;;;;;;;;;;;6193577;23;19920;-86
2023/04/13 19:29:50;;;;;;;;;;;;;;;;;;6135428;23;19920;-87
2023/04/13 19:32:21;;;;;;;;;;;;;;;;;;6195106;23;19920;-86
2023/04/13 19:34:49;;;;;;;;;;;;;;;;;;6158287;23;19920;-86
2023/04/13 19:37:16;;;;;;;;;;;;;;;;;;6184942;23;19927;-86
2023/04/13 19:39:45;;;;;;;;;;;;;;;;;;6183540;23;19927;-87
2023/04/13 19:42:16;;;;;;;;;;;;;;;;;;6184373;23;19935;-86
2023/04/13 19:44:45;;;;;;;;;;;;;;;;;;6158322;23;19921;-86
2023/04/13 19:47:12;;;;;;;;;;;;;;;;;;6156481;23;19931;-86
2023/04/13 19:49:41;;;;;;;;;;;;;;;;;;6184914;23;20340;-86
2023/04/13 19:52:15;;;;;;;;;;;;;;;;;;6185054;23;19928;-86
2023/04/13 19:54:42;;;;;;;;;;;;;;;;;;6194319;23;19920;-86
2023/04/13 19:57:09;;;;;;;;;;;;;;;;;;6134258;23;19927;-86
2023/04/13 19:59:38;;;;;;;;;;;;;;;;;;6184707;23;19920;-86
2023/04/13 20:02:05;;;;;;;;;;;;;;;;;;6184825;23;19924;-87
2023/04/13 20:04:35;;;;;;;;;;;;;;;;;;6168537;23;19920;-87
2023/04/13 20:07:02;;;;;;;;;;;;;;;;;;6184192;23;19921;-87
2023/04/13 20:09:30;;;;;;;;;;;;;;;;;;6158881;23;19920;-86
2023/04/13 20:11:59;;;;;;;;;;;;;;;;;;6158438;23;19931;-86
2023/04/13 20:14:26;;;;;;;;;;;;;;;;;;6184063;23;19920;-87
2023/04/13 20:16:57;;;;;;;;;;;;;;;;;;6159131;23;19920;-86
2023/04/13 20:19:26;;;;;;;;;;;;;;;;;;6185410;23;19927;-86
2023/04/13 20:21:54;;;;;;;;;;;;;;;;;;6183754;23;20200;-87
2023/04/13 20:24:21;;;;;;;;;;;;;;;;;;6133825;23;19924;-86
2023/04/13 20:26:50;;;;;;;;;;;;;;;;;;6184826;23;20253;-86
2023/04/13 20:29:20;;;;;;;;;;;;;;;;;;6185816;23;20344;-86
2023/04/13 20:31:47;;;;;;;;;;;;;;;;;;6185107;23;19929;-86
2023/04/13 20:34:19;;;;;;;;;;;;;;;;;;6184389;23;20368;-87
2023/04/13 20:36:48;;;;;;;;;;;;;;;;;;6158820;23;19921;-87
2023/04/13 20:39:20;;;;;;;;;;;;;;;;;;6183743;23;19920;-86
2023/04/13 20:41:53;;;;;;;;;;;;;;;;;;6194155;23;19920;-87
2023/04/13 20:44:22;;;;;;;;;;;;;;;;;;6133269;23;20344;-86
2023/04/13 20:46:53;;;;;;;;;;;;;;;;;;6194621;23;19931;-87
2023/04/13 20:49:22;;;;;;;;;;;;;;;;;;6184765;23;19920;-86
2023/04/13 20:51:52;;;;;;;;;;;;;;;;;;6133601;23;19940;-86
2023/04/13 20:54:19;;;;;;;;;;;;;;;;;;6194119;23;19920;-86
2023/04/13 20:56:47;;;;;;;;;;;;;;;;;;6184051;23;19940;-86
2023/04/13 20:59:14;;;;;;;;;;;;;;;;;;6156877;23;20400;-86
2023/04/13 21:01:43;;;;;;;;;;;;;;;;;;6167520;23;19947;-86
2023/04/13 21:04:11;;;;;;;;;;;;;;;;;;6158230;23;19920;-86
2023/04/13 21:06:39;;;;;;;;;;;;;;;;;;6184170;23;19928;-86
2023/04/13 21:09:08;;;;;;;;;;;;;;;;;;6186237;23;19920;-86
2023/04/13 21:11:35;;;;;;;;;;;;;;;;;;6157443;23;19927;-86
2023/04/13 21:14:02;;;;;;;;;;;;;;;;;;6158452;23;20272;-86
2023/04/13 21:16:29;;;;;;;;;;;;;;;;;;6184795;23;19921;-86
2023/04/13 21:18:56;;;;;;;;;;;;;;;;;;6133372;23;19935;-86
2023/04/13 21:21:24;;;;;;;;;;;;;;;;;;6157503;23;19947;-86
2023/04/13 21:23:55;;;;;;;;;;;;;;;;;;6194362;23;19920;-86
2023/04/13 21:26:22;;;;;;;;;;;;;;;;;;6133649;23;19920;-86
2023/04/13 21:28:53;;;;;;;;;;;;;;;;;;6186455;23;20224;-86
2023/04/13 21:31:20;;;;;;;;;;;;;;;;;;6183517;23;19969;-86
2023/04/13 21:33:50;;;;;;;;;;;;;;;;;;6183655;23;19928;-85
2023/04/13 21:36:17;;;;;;;;;;;;;;;;;;6133723;23;19927;-85
2023/04/13 21:38:44;;;;;;;;;;;;;;;;;;6187619;23;19920;-85
2023/04/13 21:41:17;;;;;;;;;;;;;;;;;;6183941;23;19928;-86
2023/04/13 21:43:47;;;;;;;;;;;;;;;;;;6183884;23;20359;-85
2023/04/13 21:46:14;;;;;;;;;;;;;;;;;;6158407;23;19924;-86
2023/04/13 21:48:41;;;;;;;;;;;;;;;;;;6158366;23;20251;-85
2023/04/13 21:51:09;;;;;;;;;;;;;;;;;;6183761;23;20477;-85
2023/04/13 21:53:40;;;;;;;;;;;;;;;;;;6193733;23;19927;-86
2023/04/13 21:56:10;;;;;;;;;;;;;;;;;;6157993;23;19940;-86
2023/04/13 21:58:41;;;;;;;;;;;;;;;;;;6184865;23;20387;-86
2023/04/13 22:01:13;;;;;;;;;;;;;;;;;;6183628;23;19935;-86
2023/04/13 22:03:40;;;;;;;;;;;;;;;;;;6184116;23;19921;-86
2023/04/13 22:06:08;;;;;;;;;;;;;;;;;;6196651;23;20200;-86
2023/04/13 22:08:39;;;;;;;;;;;;;;;;;;6164630;23;19927;-86
2023/04/13 22:11:09;;;;;;;;;;;;;;;;;;6187073;23;19920;-85
2023/04/13 22:13:36;;;;;;;;;;;;;;;;;;6188202;23;19928;-85
2023/04/13 22:16:07;;;;;;;;;;;;;;;;;;6163641;23;19931;-85
2023/04/13 22:18:35;;;;;;;;;;;;;;;;;;6198991;23;19925;-86
2023/04/13 22:21:04;;;;;;;;;;;;;;;;;;6159686;23;19924;-86
2023/04/13 22:23:31;;;;;;;;;;;;;;;;;;6209605;23;19920;-84
2023/04/13 22:26:00;;;;;;;;;;;;;;;;;;6211147;23;19960;-86
2023/04/13 22:28:29;;;;;;;;;;;;;;;;;;6182831;23;19920;-86
2023/04/13 22:31:03;;;;;;;;;;;;;;;;;;6158848;23;19924;-87
2023/04/13 22:33:35;;;;;;;;;;;;;;;;;;6210387;23;19942;-85
2023/04/13 22:36:02;;;;;;;;;;;;;;;;;;6159352;23;19927;-86
2023/04/13 22:38:32;;;;;;;;;;;;;;;;;;6160047;23;19928;-86
2023/04/13 22:41:05;;;;;;;;;;;;;;;;;;6159982;23;19927;-86
2023/04/13 22:43:36;;;;;;;;;;;;;;;;;;6193408;23;19920;-86
2023/04/13 22:46:06;;;;;;;;;;;;;;;;;;6134672;23;19943;-85
2023/04/13 22:48:37;;;;;;;;;;;;;;;;;;6163271;23;19920;-85
2023/04/13 22:51:06;;;;;;;;;;;;;;;;;;6135173;23;19920;-85
2023/04/13 22:53:33;;;;;;;;;;;;;;;;;;6185119;23;19920;-85
2023/04/13 22:56:03;;;;;;;;;;;;;;;;;;6158219;23;19921;-85
2023/04/13 22:58:30;;;;;;;;;;;;;;;;;;6185900;23;19920;-86
2023/04/13 23:00:58;;;;;;;;;;;;;;;;;;6159595;23;19920;-85
2023/04/13 23:03:28;;;;;;;;;;;;;;;;;;6158190;23;19978;-85
2023/04/13 23:05:58;;;;;;;;;;;;;;;;;;6159046;23;19927;-85
2023/04/13 23:08:29;;;;;;;;;;;;;;;;;;6163465;23;19924;-85
2023/04/13 23:10:56;;;;;;;;;;;;;;;;;;6159257;23;19928;-85
2023/04/13 23:13:23;;;;;;;;;;;;;;;;;;6194436;23;19927;-85
2023/04/13 23:15:50;;;;;;;;;;;;;;;;;;6194574;23;20363;-86
2023/04/13 23:18:17;;;;;;;;;;;;;;;;;;6190065;23;19921;-85
2023/04/13 23:20:46;;;;;;;;;;;;;;;;;;6195507;23;20271;-86
2023/04/13 23:23:17;;;;;;;;;;;;;;;;;;6158213;23;19924;-85
2023/04/13 23:25:48;;;;;;;;;;;;;;;;;;6134396;23;19920;-86
2023/04/13 23:28:15;;;;;;;;;;;;;;;;;;6133690;23;19932;-86
2023/04/13 23:30:45;;;;;;;;;;;;;;;;;;6159093;23;19920;-85
2023/04/13 23:33:15;;;;;;;;;;;;;;;;;;6158265;23;19921;-86
2023/04/13 23:35:42;;;;;;;;;;;;;;;;;;6184687;23;19920;-85
2023/04/13 23:38:09;;;;;;;;;;;;;;;;;;6133054;23;19920;-85
2023/04/13 23:40:37;;;;;;;;;;;;;;;;;;6186912;23;19928;-85
2023/04/13 23:43:04;;;;;;;;;;;;;;;;;;6205487;23;19920;-86
2023/04/13 23:45:33;;;;;;;;;;;;;;;;;;6207415;23;19921;-86
2023/04/13 23:48:03;;;;;;;;;;;;;;;;;;6192230;23;19924;-86
2023/04/13 23:50:29;;;;;;;;;;;;;;;;;;6196962;23;19943;-86
2023/04/13 23:52:59;;;;;;;;;;;;;;;;;;6160135;23;19939;-87
2023/04/13 23:55:28;;;;;;;;;;;;;;;;;;6186803;23;19921;-86
2023/04/13 23:57:59;;;;;;;;;;;;;;;;;;6192807;23;19928;-88
